sensor_id;sensor_type;location;lat;lon;timestamp;temperature;humidity
39951;DHT22;25629;51.444;-2.606;2023-04-01T00:02:07;10.50;99.90
39951;DHT22;25629;51.444;-2.606;2023-04-01T00:04:33;10.60;99.90
39951;DHT22;25629;51.444;-2.606;2023-04-01T00:06:59;10.60;99.90
39951;DHT22;25629;51.444;-2.606;2023-04-01T00:09:25;10.50;99.90
39951;DHT22;25629;51.444;-2.606;2023-04-01T00:11:51;10.50;99.90
39951;DHT22;25629;51.444;-2.606;2023-04-01T00:14:17;10.50;99.90
39951;DHT22;25629;51.444;-2.606;2023-04-01T00:16:43;10.50;99.90
39951;DHT22;25629;51.444;-2.606;2023-04-01T00:19:09;10.50;99.90
39951;DHT22;25629;51.444;-2.606;2023-04-01T00:21:35;10.50;99.90
39951;DHT22;25629;51.444;-2.606;2023-04-01T00:24:02;10.50;99.90
39951;DHT22;25629;51.444;-2.606;2023-04-01T00:26:28;10.50;99.90
39951;DHT22;25629;51.444;-2.606;2023-04-01T00:28:53;10.50;99.90
39951;DHT22;25629;51.444;-2.606;2023-04-01T00:31:19;10.40;99.90
39951;DHT22;25629;51.444;-2.606;2023-04-01T00:33:45;10.40;99.90
39951;DHT22;25629;51.444;-2.606;2023-04-01T00:36:12;10.50;99.90
39951;DHT22;25629;51.444;-2.606;2023-04-01T00:38:38;10.40;99.90
39951;DHT22;25629;51.444;-2.606;2023-04-01T00:41:04;10.40;99.90
39951;DHT22;25629;51.444;-2.606;2023-04-01T00:43:30;10.40;99.90
39951;DHT22;25629;51.444;-2.606;2023-04-01T00:45:56;10.40;99.90
39951;DHT22;25629;51.444;-2.606;2023-04-01T00:48:23;10.40;99.90
39951;DHT22;25629;51.444;-2.606;2023-04-01T00:50:54;10.40;99.90
39951;DHT22;25629;51.444;-2.606;2023-04-01T00:53:21;10.40;99.90
39951;DHT22;25629;51.444;-2.606;2023-04-01T00:56:03;10.40;99.90
39951;DHT22;25629;51.444;-2.606;2023-04-01T00:58:32;10.50;99.90
39951;DHT22;25629;51.444;-2.606;2023-04-01T01:01:00;10.40;99.90
39951;DHT22;25629;51.444;-2.606;2023-04-01T01:03:27;10.40;99.90
39951;DHT22;25629;51.444;-2.606;2023-04-01T01:09:37;10.40;99.90
39951;DHT22;25629;51.444;-2.606;2023-04-01T01:14:52;10.40;99.90
39951;DHT22;25629;51.444;-2.606;2023-04-01T01:31:00;10.40;99.90
39951;DHT22;25629;51.444;-2.606;2023-04-01T01:33:43;10.40;99.90
39951;DHT22;25629;51.444;-2.606;2023-04-01T01:36:13;10.40;99.90
39951;DHT22;25629;51.444;-2.606;2023-04-01T01:38:41;10.40;99.90
39951;DHT22;25629;51.444;-2.606;2023-04-01T01:41:08;10.40;99.90
39951;DHT22;25629;51.444;-2.606;2023-04-01T01:43:43;10.40;99.90
39951;DHT22;25629;51.444;-2.606;2023-04-01T01:46:13;10.30;99.90
39951;DHT22;25629;51.444;-2.606;2023-04-01T01:48:42;10.40;99.90
39951;DHT22;25629;51.444;-2.606;2023-04-01T01:51:08;10.40;99.90
39951;DHT22;25629;51.444;-2.606;2023-04-01T01:53:35;10.40;99.90
39951;DHT22;25629;51.444;-2.606;2023-04-01T01:56:01;10.30;99.90
39951;DHT22;25629;51.444;-2.606;2023-04-01T01:58:33;10.30;99.90
39951;DHT22;25629;51.444;-2.606;2023-04-01T02:01:08;10.30;99.90
39951;DHT22;25629;51.444;-2.606;2023-04-01T02:03:37;10.30;99.90
39951;DHT22;25629;51.444;-2.606;2023-04-01T02:06:07;10.30;99.90
39951;DHT22;25629;51.444;-2.606;2023-04-01T02:11:11;10.20;99.90
39951;DHT22;25629;51.444;-2.606;2023-04-01T02:13:45;10.20;99.90
39951;DHT22;25629;51.444;-2.606;2023-04-01T02:16:23;10.20;99.90
39951;DHT22;25629;51.444;-2.606;2023-04-01T02:18:53;10.20;99.90
39951;DHT22;25629;51.444;-2.606;2023-04-01T02:21:22;10.20;99.90
39951;DHT22;25629;51.444;-2.606;2023-04-01T02:23:50;10.10;99.90
39951;DHT22;25629;51.444;-2.606;2023-04-01T02:26:17;10.20;99.90
39951;DHT22;25629;51.444;-2.606;2023-04-01T02:28:46;10.10;99.90
39951;DHT22;25629;51.444;-2.606;2023-04-01T02:31:13;10.10;99.90
39951;DHT22;25629;51.444;-2.606;2023-04-01T02:33:40;10.10;99.90
39951;DHT22;25629;51.444;-2.606;2023-04-01T02:36:11;10.10;99.90
39951;DHT22;25629;51.444;-2.606;2023-04-01T02:38:38;10.10;99.90
39951;DHT22;25629;51.444;-2.606;2023-04-01T02:41:04;10.10;99.90
39951;DHT22;25629;51.444;-2.606;2023-04-01T02:43:31;10.10;99.90
39951;DHT22;25629;51.444;-2.606;2023-04-01T02:45:57;10.10;99.90
39951;DHT22;25629;51.444;-2.606;2023-04-01T02:48:23;10.10;99.90
39951;DHT22;25629;51.444;-2.606;2023-04-01T02:50:48;10.10;99.90
39951;DHT22;25629;51.444;-2.606;2023-04-01T02:53:15;10.10;99.90
39951;DHT22;25629;51.444;-2.606;2023-04-01T02:55:41;10.10;99.90
39951;DHT22;25629;51.444;-2.606;2023-04-01T02:58:10;10.10;99.90
39951;DHT22;25629;51.444;-2.606;2023-04-01T03:00:36;10.20;99.90
39951;DHT22;25629;51.444;-2.606;2023-04-01T03:03:02;10.10;99.90
39951;DHT22;25629;51.444;-2.606;2023-04-01T03:05:28;10.20;99.90
39951;DHT22;25629;51.444;-2.606;2023-04-01T03:07:55;10.10;99.90
39951;DHT22;25629;51.444;-2.606;2023-04-01T03:10:20;10.00;99.90
39951;DHT22;25629;51.444;-2.606;2023-04-01T03:12:46;10.00;99.90
39951;DHT22;25629;51.444;-2.606;2023-04-01T03:15:13;10.00;99.90
39951;DHT22;25629;51.444;-2.606;2023-04-01T03:17:42;10.00;99.90
39951;DHT22;25629;51.444;-2.606;2023-04-01T03:20:09;10.00;99.90
39951;DHT22;25629;51.444;-2.606;2023-04-01T03:22:36;10.00;99.90
39951;DHT22;25629;51.444;-2.606;2023-04-01T03:25:04;10.00;99.90
39951;DHT22;25629;51.444;-2.606;2023-04-01T03:27:30;10.00;99.90
39951;DHT22;25629;51.444;-2.606;2023-04-01T03:29:55;10.00;99.90
39951;DHT22;25629;51.444;-2.606;2023-04-01T03:32:21;9.90;99.90
39951;DHT22;25629;51.444;-2.606;2023-04-01T03:34:47;10.00;99.90
39951;DHT22;25629;51.444;-2.606;2023-04-01T03:37:13;9.90;99.90
39951;DHT22;25629;51.444;-2.606;2023-04-01T03:39:39;10.00;99.90
39951;DHT22;25629;51.444;-2.606;2023-04-01T03:42:05;9.90;99.90
39951;DHT22;25629;51.444;-2.606;2023-04-01T03:44:32;10.00;99.90
39951;DHT22;25629;51.444;-2.606;2023-04-01T03:46:59;10.00;99.90
39951;DHT22;25629;51.444;-2.606;2023-04-01T03:49:24;9.90;99.90
39951;DHT22;25629;51.444;-2.606;2023-04-01T03:51:50;10.00;99.90
39951;DHT22;25629;51.444;-2.606;2023-04-01T03:54:16;9.90;99.90
39951;DHT22;25629;51.444;-2.606;2023-04-01T03:56:42;10.00;99.90
39951;DHT22;25629;51.444;-2.606;2023-04-01T03:59:08;9.90;99.90
39951;DHT22;25629;51.444;-2.606;2023-04-01T04:01:34;9.90;99.90
39951;DHT22;25629;51.444;-2.606;2023-04-01T04:04:00;9.90;99.90
39951;DHT22;25629;51.444;-2.606;2023-04-01T04:06:26;9.90;99.90
39951;DHT22;25629;51.444;-2.606;2023-04-01T04:08:52;9.90;99.90
39951;DHT22;25629;51.444;-2.606;2023-04-01T04:11:19;9.90;99.90
39951;DHT22;25629;51.444;-2.606;2023-04-01T04:13:45;9.90;99.90
39951;DHT22;25629;51.444;-2.606;2023-04-01T04:16:13;9.90;99.90
39951;DHT22;25629;51.444;-2.606;2023-04-01T04:18:39;9.90;99.90
39951;DHT22;25629;51.444;-2.606;2023-04-01T04:21:05;9.90;99.90
39951;DHT22;25629;51.444;-2.606;2023-04-01T04:23:30;9.90;99.90
39951;DHT22;25629;51.444;-2.606;2023-04-01T04:26:01;9.90;99.90
39951;DHT22;25629;51.444;-2.606;2023-04-01T04:28:27;9.90;99.90
39951;DHT22;25629;51.444;-2.606;2023-04-01T04:30:54;9.90;99.90
39951;DHT22;25629;51.444;-2.606;2023-04-01T04:33:20;9.90;99.90
39951;DHT22;25629;51.444;-2.606;2023-04-01T04:35:45;9.90;99.90
39951;DHT22;25629;51.444;-2.606;2023-04-01T04:38:11;9.90;99.90
39951;DHT22;25629;51.444;-2.606;2023-04-01T04:40:37;9.90;99.90
39951;DHT22;25629;51.444;-2.606;2023-04-01T04:43:03;9.90;99.90
39951;DHT22;25629;51.444;-2.606;2023-04-01T04:45:29;9.90;99.90
39951;DHT22;25629;51.444;-2.606;2023-04-01T04:47:56;9.90;99.90
39951;DHT22;25629;51.444;-2.606;2023-04-01T04:50:22;9.90;99.90
39951;DHT22;25629;51.444;-2.606;2023-04-01T04:52:48;10.00;99.90
39951;DHT22;25629;51.444;-2.606;2023-04-01T04:55:14;9.90;99.90
39951;DHT22;25629;51.444;-2.606;2023-04-01T04:57:41;9.90;99.90
39951;DHT22;25629;51.444;-2.606;2023-04-01T05:00:07;9.90;99.90
39951;DHT22;25629;51.444;-2.606;2023-04-01T05:02:33;9.90;99.90
39951;DHT22;25629;51.444;-2.606;2023-04-01T05:04:59;9.90;99.90
39951;DHT22;25629;51.444;-2.606;2023-04-01T05:07:25;9.90;99.90
39951;DHT22;25629;51.444;-2.606;2023-04-01T05:09:51;9.90;99.90
39951;DHT22;25629;51.444;-2.606;2023-04-01T05:12:17;9.90;99.90
39951;DHT22;25629;51.444;-2.606;2023-04-01T05:14:42;9.90;99.90
39951;DHT22;25629;51.444;-2.606;2023-04-01T05:17:10;9.90;99.90
39951;DHT22;25629;51.444;-2.606;2023-04-01T05:19:36;9.90;99.90
39951;DHT22;25629;51.444;-2.606;2023-04-01T05:22:01;9.90;99.90
39951;DHT22;25629;51.444;-2.606;2023-04-01T05:24:27;9.90;99.90
39951;DHT22;25629;51.444;-2.606;2023-04-01T05:26:56;9.80;99.90
39951;DHT22;25629;51.444;-2.606;2023-04-01T05:29:23;9.90;99.90
39951;DHT22;25629;51.444;-2.606;2023-04-01T05:31:49;9.90;99.90
39951;DHT22;25629;51.444;-2.606;2023-04-01T05:34:14;9.90;99.90
39951;DHT22;25629;51.444;-2.606;2023-04-01T05:36:41;9.80;99.90
39951;DHT22;25629;51.444;-2.606;2023-04-01T05:39:07;9.80;99.90
39951;DHT22;25629;51.444;-2.606;2023-04-01T05:41:36;9.80;99.90
39951;DHT22;25629;51.444;-2.606;2023-04-01T05:44:02;9.80;99.90
39951;DHT22;25629;51.444;-2.606;2023-04-01T05:46:28;9.80;99.90
39951;DHT22;25629;51.444;-2.606;2023-04-01T05:48:54;9.80;99.90
39951;DHT22;25629;51.444;-2.606;2023-04-01T05:51:20;9.80;99.90
39951;DHT22;25629;51.444;-2.606;2023-04-01T05:53:46;9.80;99.90
39951;DHT22;25629;51.444;-2.606;2023-04-01T05:56:12;9.90;99.90
39951;DHT22;25629;51.444;-2.606;2023-04-01T05:58:38;9.80;99.90
39951;DHT22;25629;51.444;-2.606;2023-04-01T06:01:06;9.80;99.90
39951;DHT22;25629;51.444;-2.606;2023-04-01T06:03:33;9.80;99.90
39951;DHT22;25629;51.444;-2.606;2023-04-01T06:05:58;9.90;99.90
39951;DHT22;25629;51.444;-2.606;2023-04-01T06:08:27;9.80;99.90
39951;DHT22;25629;51.444;-2.606;2023-04-01T06:38:04;9.90;99.90
39951;DHT22;25629;51.444;-2.606;2023-04-01T06:46:03;9.90;99.90
39951;DHT22;25629;51.444;-2.606;2023-04-01T06:52:02;9.90;99.90
39951;DHT22;25629;51.444;-2.606;2023-04-01T06:54:36;9.90;99.90
39951;DHT22;25629;51.444;-2.606;2023-04-01T06:57:23;9.90;99.90
39951;DHT22;25629;51.444;-2.606;2023-04-01T06:59:49;9.90;99.90
39951;DHT22;25629;51.444;-2.606;2023-04-01T07:02:28;9.90;99.90
39951;DHT22;25629;51.444;-2.606;2023-04-01T07:04:56;10.00;99.90
39951;DHT22;25629;51.444;-2.606;2023-04-01T07:07:41;10.00;99.90
39951;DHT22;25629;51.444;-2.606;2023-04-01T07:13:31;10.00;99.90
39951;DHT22;25629;51.444;-2.606;2023-04-01T07:16:25;10.00;99.90
39951;DHT22;25629;51.444;-2.606;2023-04-01T07:19:16;10.00;99.90
39951;DHT22;25629;51.444;-2.606;2023-04-01T07:24:22;10.00;99.90
39951;DHT22;25629;51.444;-2.606;2023-04-01T07:26:54;10.00;99.90
39951;DHT22;25629;51.444;-2.606;2023-04-01T07:29:20;10.00;99.90
39951;DHT22;25629;51.444;-2.606;2023-04-01T07:32:19;10.00;99.90
39951;DHT22;25629;51.444;-2.606;2023-04-01T07:45:38;10.30;99.90
39951;DHT22;25629;51.444;-2.606;2023-04-01T07:48:33;10.30;99.90
39951;DHT22;25629;51.444;-2.606;2023-04-01T07:51:24;10.30;99.90
39951;DHT22;25629;51.444;-2.606;2023-04-01T07:59:29;10.40;99.90
39951;DHT22;25629;51.444;-2.606;2023-04-01T08:08:06;10.50;99.90
39951;DHT22;25629;51.444;-2.606;2023-04-01T08:16:49;10.40;99.90
39951;DHT22;25629;51.444;-2.606;2023-04-01T08:22:09;10.60;99.90
39951;DHT22;25629;51.444;-2.606;2023-04-01T08:24:43;10.60;99.90
39951;DHT22;25629;51.444;-2.606;2023-04-01T08:27:28;10.70;99.90
39951;DHT22;25629;51.444;-2.606;2023-04-01T08:30:38;10.70;99.90
39951;DHT22;25629;51.444;-2.606;2023-04-01T08:35:56;10.60;99.90
39951;DHT22;25629;51.444;-2.606;2023-04-01T08:38:31;10.60;99.90
39951;DHT22;25629;51.444;-2.606;2023-04-01T08:41:05;10.60;99.90
39951;DHT22;25629;51.444;-2.606;2023-04-01T08:55:24;10.20;99.90
39951;DHT22;25629;51.444;-2.606;2023-04-01T09:14:40;10.10;99.90
39951;DHT22;25629;51.444;-2.606;2023-04-01T09:33:39;10.70;99.90
39951;DHT22;25629;51.444;-2.606;2023-04-01T09:39:04;10.90;99.90
39951;DHT22;25629;51.444;-2.606;2023-04-01T09:50:20;11.20;99.90
39951;DHT22;25629;51.444;-2.606;2023-04-01T10:06:54;11.40;99.90
39951;DHT22;25629;51.444;-2.606;2023-04-01T10:18:56;11.30;99.90
39951;DHT22;25629;51.444;-2.606;2023-04-01T10:34:48;11.10;99.90
39951;DHT22;25629;51.444;-2.606;2023-04-01T11:06:58;11.80;99.90
39951;DHT22;25629;51.444;-2.606;2023-04-01T11:21:27;11.80;99.90
39951;DHT22;25629;51.444;-2.606;2023-04-01T11:29:40;11.90;99.90
39951;DHT22;25629;51.444;-2.606;2023-04-01T11:49:42;12.20;99.90
39951;DHT22;25629;51.444;-2.606;2023-04-01T11:55:38;12.10;99.90
39951;DHT22;25629;51.444;-2.606;2023-04-01T11:58:32;12.20;99.90
39951;DHT22;25629;51.444;-2.606;2023-04-01T12:03:55;12.60;99.90
39951;DHT22;25629;51.444;-2.606;2023-04-01T12:14:45;12.70;99.90
39951;DHT22;25629;51.444;-2.606;2023-04-01T12:23:14;11.60;99.90
39951;DHT22;25629;51.444;-2.606;2023-04-01T12:31:56;11.90;99.90
39951;DHT22;25629;51.444;-2.606;2023-04-01T12:45:27;12.20;99.90
39951;DHT22;25629;51.444;-2.606;2023-04-01T12:48:10;12.30;99.90
39951;DHT22;25629;51.444;-2.606;2023-04-01T12:54:31;12.70;99.90
39951;DHT22;25629;51.444;-2.606;2023-04-01T13:16:24;12.90;99.90
39951;DHT22;25629;51.444;-2.606;2023-04-01T13:19:17;12.90;99.90
39951;DHT22;25629;51.444;-2.606;2023-04-01T13:27:34;13.50;99.60
39951;DHT22;25629;51.444;-2.606;2023-04-01T13:30:30;13.90;94.80
39951;DHT22;25629;51.444;-2.606;2023-04-01T13:33:20;13.60;90.50
39951;DHT22;25629;51.444;-2.606;2023-04-01T13:36:28;13.60;95.30
39951;DHT22;25629;51.444;-2.606;2023-04-01T13:42:09;14.90;86.60
39951;DHT22;25629;51.444;-2.606;2023-04-01T13:44:51;15.70;69.60
39951;DHT22;25629;51.444;-2.606;2023-04-01T13:47:49;16.10;23.80
39951;DHT22;25629;51.444;-2.606;2023-04-01T13:58:55;19.10;99.90
39951;DHT22;25629;51.444;-2.606;2023-04-01T14:04:42;17.00;1.00
39951;DHT22;25629;51.444;-2.606;2023-04-01T14:15:35;15.90;1.00
39951;DHT22;25629;51.444;-2.606;2023-04-01T14:48:52;15.80;99.90
39951;DHT22;25629;51.444;-2.606;2023-04-01T14:51:35;16.00;1.00
39951;DHT22;25629;51.444;-2.606;2023-04-01T14:54:13;17.40;99.90
39951;DHT22;25629;51.444;-2.606;2023-04-01T14:57:01;19.10;99.90
39951;DHT22;25629;51.444;-2.606;2023-04-01T14:59:29;20.50;1.00
39951;DHT22;25629;51.444;-2.606;2023-04-01T15:18:17;21.80;1.00
39951;DHT22;25629;51.444;-2.606;2023-04-01T15:23:49;22.50;1.00
39951;DHT22;25629;51.444;-2.606;2023-04-01T15:40:07;20.10;1.00
39951;DHT22;25629;51.444;-2.606;2023-04-01T15:46:09;19.60;22.60
39951;DHT22;25629;51.444;-2.606;2023-04-01T15:57:11;18.00;99.90
39951;DHT22;25629;51.444;-2.606;2023-04-01T16:02:49;16.40;99.90
39951;DHT22;25629;51.444;-2.606;2023-04-01T16:19:13;15.90;1.00
39951;DHT22;25629;51.444;-2.606;2023-04-01T16:21:50;16.00;99.90
39951;DHT22;25629;51.444;-2.606;2023-04-01T16:26:56;16.10;99.90
39951;DHT22;25629;51.444;-2.606;2023-04-01T16:32:57;15.90;50.80
39951;DHT22;25629;51.444;-2.606;2023-04-01T16:35:29;15.70;99.90
39951;DHT22;25629;51.444;-2.606;2023-04-01T16:40:57;15.40;99.90
39951;DHT22;25629;51.444;-2.606;2023-04-01T16:43:45;15.30;5.00
39951;DHT22;25629;51.444;-2.606;2023-04-01T16:46:34;15.20;99.90
39951;DHT22;25629;51.444;-2.606;2023-04-01T16:49:36;15.20;99.90
39951;DHT22;25629;51.444;-2.606;2023-04-01T16:52:04;15.00;99.90
39951;DHT22;25629;51.444;-2.606;2023-04-01T16:55:18;14.80;1.00
39951;DHT22;25629;51.444;-2.606;2023-04-01T16:57:55;14.60;1.00
39951;DHT22;25629;51.444;-2.606;2023-04-01T17:03:04;14.40;99.90
39951;DHT22;25629;51.444;-2.606;2023-04-01T17:16:17;16.00;99.90
39951;DHT22;25629;51.444;-2.606;2023-04-01T17:24:27;19.40;83.40
39951;DHT22;25629;51.444;-2.606;2023-04-01T17:32:30;18.20;99.90
39951;DHT22;25629;51.444;-2.606;2023-04-01T17:35:14;17.10;1.00
39951;DHT22;25629;51.444;-2.606;2023-04-01T17:53:59;14.20;99.90
39951;DHT22;25629;51.444;-2.606;2023-04-01T17:57:06;13.90;99.90
39951;DHT22;25629;51.444;-2.606;2023-04-01T17:59:39;13.80;99.90
39951;DHT22;25629;51.444;-2.606;2023-04-01T18:02:33;13.60;99.90
39951;DHT22;25629;51.444;-2.606;2023-04-01T18:05:24;13.60;99.90
39951;DHT22;25629;51.444;-2.606;2023-04-01T18:19:33;13.20;1.00
39951;DHT22;25629;51.444;-2.606;2023-04-01T18:24:32;13.00;1.00
39951;DHT22;25629;51.444;-2.606;2023-04-01T18:29:41;12.80;1.00
39951;DHT22;25629;51.444;-2.606;2023-04-01T18:32:27;12.80;1.00
39951;DHT22;25629;51.444;-2.606;2023-04-01T18:38:15;12.60;1.00
39951;DHT22;25629;51.444;-2.606;2023-04-01T18:40:43;12.60;1.00
39951;DHT22;25629;51.444;-2.606;2023-04-01T18:43:43;12.60;1.00
39951;DHT22;25629;51.444;-2.606;2023-04-01T18:46:32;12.60;1.00
39951;DHT22;25629;51.444;-2.606;2023-04-01T18:52:43;12.60;1.00
39951;DHT22;25629;51.444;-2.606;2023-04-01T18:55:18;12.50;1.00
39951;DHT22;25629;51.444;-2.606;2023-04-01T18:57:54;12.50;1.00
39951;DHT22;25629;51.444;-2.606;2023-04-01T19:00:27;12.50;1.00
39951;DHT22;25629;51.444;-2.606;2023-04-01T19:03:19;12.40;1.00
39951;DHT22;25629;51.444;-2.606;2023-04-01T19:05:48;12.20;1.00
39951;DHT22;25629;51.444;-2.606;2023-04-01T19:27:28;11.70;1.00
39951;DHT22;25629;51.444;-2.606;2023-04-01T19:40:53;11.40;1.00
39951;DHT22;25629;51.444;-2.606;2023-04-01T19:56:18;11.40;1.00
39951;DHT22;25629;51.444;-2.606;2023-04-01T19:58:52;11.40;1.00
39951;DHT22;25629;51.444;-2.606;2023-04-01T20:01:37;11.40;1.00
39951;DHT22;25629;51.444;-2.606;2023-04-01T20:07:07;11.30;1.00
39951;DHT22;25629;51.444;-2.606;2023-04-01T20:12:51;11.10;1.00
39951;DHT22;25629;51.444;-2.606;2023-04-01T20:15:23;11.10;1.00
39951;DHT22;25629;51.444;-2.606;2023-04-01T20:17:54;11.20;1.00
39951;DHT22;25629;51.444;-2.606;2023-04-01T20:20:26;11.10;1.00
39951;DHT22;25629;51.444;-2.606;2023-04-01T20:23:06;11.20;1.00
39951;DHT22;25629;51.444;-2.606;2023-04-01T20:25:54;11.20;1.00
39951;DHT22;25629;51.444;-2.606;2023-04-01T20:28:37;11.20;1.00
39951;DHT22;25629;51.444;-2.606;2023-04-01T20:33:46;11.20;1.00
39951;DHT22;25629;51.444;-2.606;2023-04-01T20:36:51;11.10;1.00
39951;DHT22;25629;51.444;-2.606;2023-04-01T20:44:41;11.10;1.00
39951;DHT22;25629;51.444;-2.606;2023-04-01T20:50:48;11.10;1.00
39951;DHT22;25629;51.444;-2.606;2023-04-01T21:07:55;11.20;1.00
39951;DHT22;25629;51.444;-2.606;2023-04-01T21:11:25;11.20;1.00
39951;DHT22;25629;51.444;-2.606;2023-04-01T21:19:09;10.90;1.00
39951;DHT22;25629;51.444;-2.606;2023-04-01T21:21:50;10.90;1.00
39951;DHT22;25629;51.444;-2.606;2023-04-01T21:38:01;10.80;7.80
39951;DHT22;25629;51.444;-2.606;2023-04-01T21:46:35;10.90;12.00
39951;DHT22;25629;51.444;-2.606;2023-04-01T22:08:20;10.50;18.30
39951;DHT22;25629;51.444;-2.606;2023-04-01T22:10:59;10.50;25.90
39951;DHT22;25629;51.444;-2.606;2023-04-01T22:19:27;10.50;25.90
39951;DHT22;25629;51.444;-2.606;2023-04-01T22:30:04;10.40;32.00
39951;DHT22;25629;51.444;-2.606;2023-04-01T22:32:47;10.50;31.60
39951;DHT22;25629;51.444;-2.606;2023-04-01T22:35:27;10.40;28.00
39951;DHT22;25629;51.444;-2.606;2023-04-01T22:41:50;10.40;34.20
39951;DHT22;25629;51.444;-2.606;2023-04-01T22:43:44;10.40;40.60
39951;DHT22;25629;51.444;-2.606;2023-04-01T22:46:42;10.40;38.00
39951;DHT22;25629;51.444;-2.606;2023-04-01T22:54:48;10.40;34.40
39951;DHT22;25629;51.444;-2.606;2023-04-01T23:02:37;10.30;41.90
39951;DHT22;25629;51.444;-2.606;2023-04-01T23:05:06;10.30;41.50
39951;DHT22;25629;51.444;-2.606;2023-04-01T23:10:47;10.40;42.40
39951;DHT22;25629;51.444;-2.606;2023-04-01T23:13:17;10.30;36.80
39951;DHT22;25629;51.444;-2.606;2023-04-01T23:15:45;10.30;35.20
39951;DHT22;25629;51.444;-2.606;2023-04-01T23:18:35;10.40;48.00
39951;DHT22;25629;51.444;-2.606;2023-04-01T23:26:47;10.30;46.40
39951;DHT22;25629;51.444;-2.606;2023-04-01T23:29:17;10.20;52.30
39951;DHT22;25629;51.444;-2.606;2023-04-01T23:31:56;10.20;50.50
39951;DHT22;25629;51.444;-2.606;2023-04-01T23:34:33;10.20;53.20
39951;DHT22;25629;51.444;-2.606;2023-04-01T23:37:13;10.20;51.30
39951;DHT22;25629;51.444;-2.606;2023-04-01T23:39:55;10.20;55.20
39951;DHT22;25629;51.444;-2.606;2023-04-01T23:42:32;10.20;55.70
39951;DHT22;25629;51.444;-2.606;2023-04-01T23:45:00;10.20;54.20
39951;DHT22;25629;51.444;-2.606;2023-04-01T23:47:32;10.20;56.70
39951;DHT22;25629;51.444;-2.606;2023-04-01T23:50:10;10.20;60.20
39951;DHT22;25629;51.444;-2.606;2023-04-01T23:53:02;10.20;61.80
39951;DHT22;25629;51.444;-2.606;2023-04-01T23:55:31;10.20;60.70
